createdAt,value
2017-10-20T00:00:20.104Z,82.70
2017-10-20T00:02:46.334Z,83.00
2017-10-20T00:05:12.634Z,83.10
2017-10-20T00:07:38.880Z,82.70
2017-10-20T00:10:05.173Z,82.80
2017-10-20T00:12:32.029Z,82.50
2017-10-20T00:14:58.230Z,82.50
2017-10-20T00:17:25.020Z,82.30
2017-10-20T00:19:51.261Z,82.30
2017-10-20T00:22:17.631Z,83.20
2017-10-20T00:24:43.838Z,83.20
2017-10-20T00:27:10.072Z,83.00
2017-10-20T00:29:36.277Z,82.90
2017-10-20T00:32:02.508Z,83.30
2017-10-20T00:34:28.732Z,82.90
2017-10-20T00:36:54.972Z,82.60
2017-10-20T00:39:21.212Z,82.70
2017-10-20T00:41:47.421Z,82.70
2017-10-20T00:44:13.726Z,82.10
2017-10-20T00:46:39.956Z,81.90
2017-10-20T00:49:06.184Z,81.70
2017-10-20T00:51:32.432Z,81.70
2017-10-20T00:53:58.922Z,81.70
2017-10-20T00:56:25.214Z,82.00
2017-10-20T00:58:52.060Z,82.40
2017-10-20T01:01:18.587Z,82.30
2017-10-20T01:03:44.795Z,82.60
2017-10-20T01:06:11.017Z,82.90
2017-10-20T01:08:37.282Z,83.50
2017-10-20T01:11:03.530Z,83.60
2017-10-20T01:13:30.401Z,83.10
2017-10-20T01:15:56.623Z,83.10
2017-10-20T01:18:22.813Z,83.70
2017-10-20T01:20:49.208Z,83.20
2017-10-20T01:23:15.459Z,83.50
2017-10-20T01:25:41.733Z,83.40
2017-10-20T01:28:07.984Z,83.20
2017-10-20T01:30:34.296Z,82.70
2017-10-20T01:33:00.548Z,82.30
2017-10-20T01:35:26.790Z,82.00
2017-10-20T01:37:53.019Z,81.90
2017-10-20T01:40:19.241Z,81.60
2017-10-20T01:42:46.077Z,81.50
2017-10-20T01:45:12.542Z,81.70
2017-10-20T01:47:38.752Z,81.90
2017-10-20T01:50:05.133Z,82.10
2017-10-20T01:52:31.387Z,82.20
2017-10-20T01:54:57.641Z,82.30
2017-10-20T01:57:23.911Z,82.00
2017-10-20T01:59:50.493Z,82.00
2017-10-20T02:02:16.760Z,82.00
2017-10-20T02:04:42.991Z,81.80
2017-10-20T02:07:09.277Z,81.60
2017-10-20T02:09:35.560Z,81.70
2017-10-20T02:12:02.146Z,82.20
2017-10-20T02:14:28.356Z,82.20
2017-10-20T02:16:54.590Z,82.70
2017-10-20T02:19:20.813Z,82.20
2017-10-20T02:21:47.075Z,81.90
2017-10-20T02:24:13.325Z,81.80
2017-10-20T02:26:39.575Z,81.20
2017-10-20T02:29:06.183Z,82.40
2017-10-20T02:31:32.429Z,82.40
2017-10-20T02:33:59.040Z,83.60
2017-10-20T02:36:25.284Z,83.60
2017-10-20T02:38:51.521Z,84.20
2017-10-20T02:41:18.115Z,83.80
2017-10-20T02:43:44.361Z,83.80
2017-10-20T02:46:10.621Z,84.00
2017-10-20T02:48:37.216Z,85.00
2017-10-20T02:51:03.456Z,85.00
2017-10-20T02:53:30.732Z,84.80
2017-10-20T02:55:57.598Z,84.80
2017-10-20T02:58:24.447Z,84.80
2017-10-20T03:00:50.701Z,84.90
2017-10-20T03:03:16.932Z,84.60
2017-10-20T03:05:43.162Z,84.60
2017-10-20T03:08:09.434Z,84.80
2017-10-20T03:10:36.005Z,85.10
2017-10-20T03:13:02.488Z,85.10
2017-10-20T03:15:28.685Z,85.80
2017-10-20T03:17:55.384Z,85.10
2017-10-20T03:20:22.421Z,84.40
2017-10-20T03:22:49.032Z,84.90
2017-10-20T03:25:15.253Z,84.90
2017-10-20T03:27:41.439Z,85.80
2017-10-20T03:30:07.929Z,87.40
2017-10-20T03:32:34.510Z,86.40
2017-10-20T03:35:00.728Z,86.40
2017-10-20T03:37:26.947Z,86.10
2017-10-20T03:39:53.168Z,86.50
2017-10-20T03:42:19.995Z,86.60
2017-10-20T03:44:46.566Z,86.60
2017-10-20T03:47:12.775Z,86.60
2017-10-20T03:49:39.333Z,87.60
2017-10-20T03:52:05.598Z,87.60
2017-10-20T03:54:31.831Z,88.10
2017-10-20T03:56:58.046Z,87.80
2017-10-20T03:59:24.285Z,87.70
2017-10-20T04:01:51.140Z,87.60
2017-10-20T04:04:17.644Z,87.50
2017-10-20T04:06:43.855Z,87.50
2017-10-20T04:09:10.073Z,87.40
2017-10-20T04:11:36.368Z,88.20
2017-10-20T04:14:03.025Z,88.60
2017-10-20T04:16:29.318Z,88.60
2017-10-20T04:18:55.606Z,89.30
2017-10-20T04:21:21.856Z,88.60
2017-10-20T04:23:48.757Z,88.50
2017-10-20T04:26:15.377Z,87.80
2017-10-20T04:28:42.009Z,87.40
2017-10-20T04:31:08.279Z,87.40
2017-10-20T04:33:34.513Z,86.60
2017-10-20T04:36:00.738Z,85.70
2017-10-20T04:38:26.933Z,85.30
2017-10-20T04:40:53.555Z,85.60
2017-10-20T04:43:19.752Z,85.60
2017-10-20T04:45:45.997Z,85.70
2017-10-20T04:48:13.124Z,85.40
2017-10-20T04:50:39.368Z,85.70
2017-10-20T04:53:05.577Z,85.80
2017-10-20T04:55:31.779Z,86.10
2017-10-20T04:57:57.997Z,86.80
2017-10-20T05:00:24.232Z,87.00
2017-10-20T05:02:50.445Z,87.10
2017-10-20T05:05:17.063Z,86.10
2017-10-20T05:07:43.293Z,86.10
2017-10-20T05:10:09.498Z,86.10
2017-10-20T05:12:35.699Z,85.80
2017-10-20T05:15:01.926Z,85.90
2017-10-20T05:17:28.113Z,85.40
2017-10-20T05:19:54.713Z,85.70
2017-10-20T05:22:20.924Z,85.70
2017-10-20T05:24:47.141Z,85.60
2017-10-20T05:27:13.415Z,85.40
2017-10-20T05:29:39.616Z,86.40
2017-10-20T05:32:05.808Z,87.20
2017-10-20T05:34:32.098Z,88.30
2017-10-20T05:36:59.564Z,88.60
2017-10-20T05:39:25.764Z,88.60
2017-10-20T05:41:51.983Z,89.30
2017-10-20T05:44:18.202Z,88.70
2017-10-20T05:46:44.393Z,87.90
2017-10-20T05:49:10.999Z,87.00
2017-10-20T05:51:37.232Z,87.00
2017-10-20T05:54:03.509Z,85.80
2017-10-20T05:56:36.621Z,86.30
2017-10-20T05:59:02.902Z,86.10
2017-10-20T06:01:29.517Z,85.70
2017-10-20T06:03:56.376Z,85.70
2017-10-20T06:06:22.590Z,86.00
2017-10-20T06:08:48.824Z,85.80
2017-10-20T06:11:15.065Z,85.60
2017-10-20T06:13:41.738Z,85.30
2017-10-20T06:16:07.932Z,85.30
2017-10-20T06:18:34.552Z,84.90
2017-10-20T06:21:00.797Z,84.90
2017-10-20T06:23:27.645Z,85.20
2017-10-20T06:25:54.240Z,85.10
2017-10-20T06:28:20.461Z,85.10
2017-10-20T06:30:46.681Z,85.50
2017-10-20T06:33:12.919Z,85.70
2017-10-20T06:35:39.149Z,85.30
2017-10-20T06:38:05.538Z,84.80
2017-10-20T06:40:31.783Z,84.50
2017-10-20T06:42:57.991Z,84.30
2017-10-20T06:45:24.212Z,83.90
2017-10-20T06:47:50.824Z,84.50
2017-10-20T06:50:17.109Z,84.50
2017-10-20T06:52:43.385Z,85.10
2017-10-20T06:55:09.596Z,84.90
2017-10-20T06:57:35.865Z,85.10
2017-10-20T07:00:02.472Z,86.30
2017-10-20T07:02:28.825Z,86.30
2017-10-20T07:04:55.424Z,87.00
2017-10-20T07:07:21.668Z,87.00
2017-10-20T07:09:47.957Z,87.00
2017-10-20T07:12:14.194Z,87.90
2017-10-20T07:14:40.445Z,87.50
2017-10-20T07:17:06.661Z,87.10
2017-10-20T07:19:51.998Z,87.00
2017-10-20T07:22:18.253Z,87.40
2017-10-20T07:24:44.499Z,87.60
2017-10-20T07:27:10.774Z,86.50
2017-10-20T07:29:37.409Z,85.30
2017-10-20T07:32:04.091Z,85.20
2017-10-20T07:34:30.327Z,85.20
2017-10-20T07:36:56.861Z,85.70
2017-10-20T07:39:23.081Z,85.00
2017-10-20T07:41:49.350Z,84.30
2017-10-20T07:44:15.945Z,84.30
2017-10-20T07:46:42.199Z,84.30
2017-10-20T07:49:08.421Z,83.60
2017-10-20T07:51:34.646Z,83.60
2017-10-20T07:54:00.901Z,83.40
2017-10-20T07:56:27.488Z,83.10
2017-10-20T07:58:53.775Z,83.10
2017-10-20T08:01:20.338Z,82.30
2017-10-20T08:03:46.566Z,82.30
2017-10-20T08:06:12.830Z,81.50
2017-10-20T08:08:39.031Z,80.60
2017-10-20T08:11:05.253Z,79.80
2017-10-20T08:13:31.437Z,79.90
2017-10-20T08:15:57.676Z,80.40
2017-10-20T08:18:24.264Z,80.00
2017-10-20T08:20:50.486Z,80.00
2017-10-20T08:23:16.700Z,79.00
2017-10-20T08:25:42.926Z,78.50
2017-10-20T08:28:09.166Z,78.60
2017-10-20T08:30:35.428Z,77.70
2017-10-20T08:33:01.920Z,76.70
2017-10-20T08:35:28.132Z,77.30
2017-10-20T08:37:54.339Z,76.90
2017-10-20T08:40:20.941Z,76.00
2017-10-20T08:42:47.177Z,76.00
2017-10-20T08:45:13.434Z,75.00
2017-10-20T08:47:40.070Z,74.60
2017-10-20T08:50:06.747Z,74.90
2017-10-20T08:52:32.979Z,74.90
2017-10-20T08:54:59.494Z,74.00
2017-10-20T08:57:25.737Z,70.40
2017-10-20T08:59:51.969Z,70.30
2017-10-20T09:02:18.223Z,68.00
2017-10-20T09:04:44.443Z,68.10
2017-10-20T09:07:10.703Z,68.30
2017-10-20T09:09:36.929Z,67.80
2017-10-20T09:12:03.544Z,67.90
2017-10-20T09:14:29.751Z,67.90
2017-10-20T09:16:56.025Z,68.20
2017-10-20T09:19:22.238Z,67.20
2017-10-20T09:21:48.454Z,66.80
2017-10-20T09:24:14.725Z,67.40
2017-10-20T09:26:41.314Z,65.90
2017-10-20T09:29:08.540Z,65.90
2017-10-20T09:31:34.742Z,66.30
2017-10-20T09:34:01.338Z,66.40
2017-10-20T09:36:27.580Z,66.30
2017-10-20T09:38:54.713Z,65.50
2017-10-20T09:41:20.938Z,65.90
2017-10-20T09:43:47.181Z,65.90
2017-10-20T09:46:13.452Z,65.70
2017-10-20T09:48:39.720Z,64.40
2017-10-20T09:51:05.957Z,65.30
2017-10-20T09:53:32.182Z,65.10
2017-10-20T09:55:58.447Z,65.80
2017-10-20T09:58:24.723Z,64.20
2017-10-20T10:00:50.982Z,61.20
2017-10-20T10:03:17.225Z,59.60
2017-10-20T10:05:43.847Z,55.90
2017-10-20T10:08:10.116Z,55.90
2017-10-20T10:10:36.399Z,52.80
2017-10-20T10:13:02.657Z,47.20
2017-10-20T10:15:29.274Z,45.20
2017-10-20T10:17:55.484Z,45.20
2017-10-20T10:20:21.712Z,42.50
2017-10-20T10:22:47.946Z,35.50
2017-10-20T10:25:14.250Z,34.60
2017-10-20T10:27:40.524Z,37.30
2017-10-20T10:30:06.778Z,40.90
2017-10-20T10:32:33.384Z,45.30
2017-10-20T10:34:59.651Z,45.30
2017-10-20T10:37:25.876Z,49.00
2017-10-20T10:39:52.126Z,50.30
2017-10-20T10:42:18.353Z,51.20
2017-10-20T10:44:44.577Z,52.50
2017-10-20T10:47:10.822Z,52.20
2017-10-20T10:49:37.044Z,52.50
2017-10-20T10:52:03.256Z,52.10
2017-10-20T10:54:29.527Z,53.40
2017-10-20T10:56:55.754Z,53.40
2017-10-20T10:59:22.007Z,52.20
2017-10-20T11:01:48.244Z,52.50
2017-10-20T11:04:14.844Z,54.30
2017-10-20T11:06:53.359Z,54.30
2017-10-20T11:09:19.593Z,54.10
2017-10-20T11:11:58.137Z,53.90
2017-10-20T11:14:24.822Z,52.60
2017-10-20T11:16:51.082Z,52.60
2017-10-20T11:19:17.330Z,45.30
2017-10-20T11:21:43.773Z,36.40
2017-10-20T11:24:10.463Z,28.90
2017-10-20T11:26:36.722Z,28.90
2017-10-20T11:29:02.977Z,28.60
2017-10-20T11:31:29.605Z,35.30
2017-10-20T11:33:56.203Z,36.60
2017-10-20T11:36:22.450Z,36.60
2017-10-20T11:38:48.734Z,37.90
2017-10-20T11:41:15.260Z,39.40
2017-10-20T11:43:41.490Z,41.30
2017-10-20T11:46:07.728Z,40.50
2017-10-20T11:48:34.001Z,38.80
2017-10-20T11:51:00.215Z,39.50
2017-10-20T11:53:26.478Z,38.00
2017-10-20T11:55:52.704Z,36.30
2017-10-20T11:58:19.316Z,34.30
2017-10-20T12:00:45.540Z,34.30
2017-10-20T12:03:11.990Z,34.40
2017-10-20T12:05:38.237Z,33.80
2017-10-20T12:08:04.858Z,29.40
2017-10-20T12:10:31.727Z,27.90
2017-10-20T12:12:58.302Z,27.90
2017-10-20T12:15:24.615Z,26.60
2017-10-20T12:17:50.858Z,28.40
2017-10-20T12:20:17.115Z,28.60
2017-10-20T12:22:43.597Z,29.80
2017-10-20T12:25:09.876Z,33.50
2017-10-20T12:27:36.139Z,35.80
2017-10-20T12:30:02.746Z,38.80
2017-10-20T12:32:29.031Z,38.80
2017-10-20T12:34:55.289Z,40.20
2017-10-20T12:37:30.713Z,41.50
2017-10-20T12:39:56.956Z,42.90
2017-10-20T12:42:23.230Z,42.30
2017-10-20T12:44:49.467Z,42.70
2017-10-20T12:47:15.689Z,43.00
2017-10-20T12:49:42.280Z,41.90
2017-10-20T12:52:08.523Z,41.90
2017-10-20T12:54:34.808Z,41.50
2017-10-20T12:57:01.024Z,38.90
2017-10-20T12:59:27.235Z,35.60
2017-10-20T13:01:54.046Z,31.30
2017-10-20T13:04:20.349Z,31.40
2017-10-20T13:06:46.631Z,32.90
2017-10-20T13:09:13.245Z,32.80
2017-10-20T13:11:39.474Z,32.70
2017-10-20T13:14:05.692Z,33.90
2017-10-20T13:16:31.936Z,35.20
2017-10-20T13:18:58.165Z,37.70
2017-10-20T13:21:24.441Z,38.40
2017-10-20T13:23:50.643Z,39.50
2017-10-20T13:26:17.234Z,39.70
2017-10-20T13:28:43.476Z,39.70
2017-10-20T13:31:09.742Z,40.40
2017-10-20T13:33:36.353Z,39.60
2017-10-20T13:36:02.541Z,39.60
2017-10-20T13:38:28.840Z,37.80
2017-10-20T13:40:55.856Z,34.90
2017-10-20T13:43:22.199Z,35.50
2017-10-20T13:45:48.768Z,32.30
2017-10-20T13:48:15.041Z,32.30
2017-10-20T13:50:41.299Z,32.00
2017-10-20T13:53:07.969Z,33.00
2017-10-20T13:55:34.167Z,33.00
2017-10-20T13:58:00.764Z,36.40
2017-10-20T14:00:27.000Z,36.40
2017-10-20T14:02:53.258Z,37.70
2017-10-20T14:05:19.896Z,39.80
2017-10-20T14:07:46.124Z,39.80
2017-10-20T14:10:12.768Z,43.40
2017-10-20T14:12:38.995Z,43.40
2017-10-20T14:15:05.751Z,43.10
2017-10-20T14:17:32.005Z,43.10
2017-10-20T14:19:58.216Z,43.40
2017-10-20T14:22:31.331Z,44.50
2017-10-20T14:24:57.578Z,45.50
2017-10-20T14:27:23.828Z,44.40
2017-10-20T14:29:50.422Z,46.30
2017-10-20T14:32:16.701Z,46.30
2017-10-20T14:34:42.928Z,45.30
2017-10-20T14:37:09.554Z,44.60
2017-10-20T14:39:36.166Z,47.10
2017-10-20T14:42:02.381Z,47.10
2017-10-20T14:44:28.590Z,44.10
2017-10-20T14:46:54.834Z,44.30
2017-10-20T14:49:21.608Z,45.30
2017-10-20T14:51:47.842Z,45.30
2017-10-20T14:54:14.456Z,46.60
2017-10-20T14:56:40.668Z,46.60
2017-10-20T14:59:06.983Z,46.30
2017-10-20T15:01:33.202Z,47.10
2017-10-20T15:03:59.432Z,47.50
2017-10-20T15:06:25.667Z,48.60
2017-10-20T15:08:51.929Z,49.40
2017-10-20T15:11:18.180Z,50.50
2017-10-20T15:13:44.799Z,53.00
2017-10-20T15:16:11.013Z,53.00
2017-10-20T15:18:37.254Z,52.60
2017-10-20T15:21:03.494Z,54.40
2017-10-20T15:23:29.749Z,54.70
2017-10-20T15:25:55.991Z,55.60
2017-10-20T15:28:22.301Z,56.40
2017-10-20T15:30:48.574Z,56.80
2017-10-20T15:33:14.842Z,55.90
2017-10-20T15:35:41.056Z,57.40
2017-10-20T15:38:08.537Z,58.80
2017-10-20T15:40:35.211Z,60.10
2017-10-20T15:43:01.437Z,60.10
2017-10-20T15:45:28.578Z,59.60
2017-10-20T15:47:54.826Z,59.50
2017-10-20T15:50:21.822Z,60.60
2017-10-20T15:52:48.425Z,60.30
2017-10-20T15:55:14.634Z,60.30
2017-10-20T15:57:40.930Z,59.50
2017-10-20T16:00:07.186Z,60.70
2017-10-20T16:02:33.412Z,58.60
2017-10-20T16:04:59.681Z,58.40
2017-10-20T16:07:25.939Z,58.60
2017-10-20T16:09:53.321Z,58.50
2017-10-20T16:12:19.559Z,58.50
2017-10-20T16:14:45.795Z,58.60
2017-10-20T16:17:12.126Z,58.50
2017-10-20T16:19:38.357Z,58.70
2017-10-20T16:22:04.586Z,59.20
2017-10-20T16:24:30.828Z,59.60
2017-10-20T16:26:57.083Z,61.00
2017-10-20T16:29:23.670Z,61.10
2017-10-20T16:31:49.956Z,61.10
2017-10-20T16:34:16.548Z,60.90
2017-10-20T16:36:42.769Z,60.90
2017-10-20T16:39:09.022Z,62.00
2017-10-20T16:41:35.292Z,61.70
2017-10-20T16:44:01.560Z,62.30
2017-10-20T16:46:27.793Z,61.80
2017-10-20T16:48:54.072Z,61.80
2017-10-20T16:51:20.787Z,62.50
2017-10-20T16:53:47.270Z,62.50
2017-10-20T16:56:13.506Z,62.40
2017-10-20T16:58:39.761Z,62.80
2017-10-20T17:01:06.060Z,63.00
2017-10-20T17:03:32.334Z,62.50
2017-10-20T17:05:58.580Z,63.70
2017-10-20T17:08:25.199Z,63.20
2017-10-20T17:10:51.488Z,63.20
2017-10-20T17:13:18.534Z,62.40
2017-10-20T17:15:44.816Z,63.00
2017-10-20T17:18:12.205Z,63.90
2017-10-20T17:20:39.231Z,63.90
2017-10-20T17:23:05.820Z,64.40
2017-10-20T17:25:32.073Z,64.40
2017-10-20T17:27:58.324Z,64.60
2017-10-20T17:30:24.934Z,64.30
2017-10-20T17:32:51.191Z,64.30
2017-10-20T17:35:17.437Z,64.00
2017-10-20T17:37:44.569Z,64.20
2017-10-20T17:40:10.816Z,64.10
2017-10-20T17:42:37.080Z,64.10
2017-10-20T17:45:03.357Z,64.80
2017-10-20T17:47:29.977Z,65.80
2017-10-20T17:49:56.617Z,65.70
2017-10-20T17:52:23.222Z,65.80
2017-10-20T17:54:49.486Z,65.80
2017-10-20T17:57:17.048Z,65.90
2017-10-20T17:59:44.222Z,65.90
2017-10-20T18:02:11.058Z,65.70
2017-10-20T18:04:37.364Z,65.70
2017-10-20T18:07:04.064Z,64.60
2017-10-20T18:09:37.433Z,64.60
2017-10-20T18:12:03.752Z,65.70
2017-10-20T18:14:30.342Z,65.10
2017-10-20T18:16:57.026Z,65.50
2017-10-20T18:19:23.366Z,65.60
2017-10-20T18:21:50.343Z,65.90
2017-10-20T18:24:16.733Z,65.90
2017-10-20T18:26:43.005Z,66.30
2017-10-20T18:29:09.271Z,66.90
2017-10-20T18:31:35.554Z,68.00
2017-10-20T18:34:01.873Z,68.80
2017-10-20T18:36:28.815Z,69.80
2017-10-20T18:38:55.100Z,69.90
2017-10-20T18:41:21.747Z,70.40
2017-10-20T18:43:48.404Z,70.40
2017-10-20T18:46:14.929Z,70.40
2017-10-20T18:48:41.528Z,70.60
2017-10-20T18:51:07.820Z,70.60
2017-10-20T18:53:34.150Z,70.90
2017-10-20T18:56:00.412Z,70.90
2017-10-20T18:58:26.677Z,70.70
2017-10-20T19:00:53.319Z,71.60
2017-10-20T19:03:19.956Z,71.60
2017-10-20T19:05:46.585Z,71.40
2017-10-20T19:08:13.273Z,71.90
2017-10-20T19:10:40.322Z,71.80
2017-10-20T19:13:06.578Z,71.90
2017-10-20T19:15:32.935Z,72.00
2017-10-20T19:17:59.559Z,71.90
2017-10-20T19:20:26.232Z,72.10
2017-10-20T19:22:52.531Z,72.10
2017-10-20T19:25:19.181Z,72.60
2017-10-20T19:27:45.842Z,72.70
2017-10-20T19:30:13.830Z,72.70
2017-10-20T19:32:40.129Z,72.70
2017-10-20T19:35:06.369Z,72.60
2017-10-20T19:37:32.616Z,72.60
2017-10-20T19:39:58.880Z,72.50
2017-10-20T19:42:25.126Z,72.60
2017-10-20T19:44:51.837Z,72.80
2017-10-20T19:47:18.136Z,72.80
2017-10-20T19:49:44.381Z,72.80
2017-10-20T19:52:10.698Z,73.60
2017-10-20T19:54:37.004Z,73.70
2017-10-20T19:57:03.278Z,74.10
2017-10-20T19:59:29.558Z,74.50
2017-10-20T20:01:55.883Z,75.20
2017-10-20T20:04:23.112Z,75.20
2017-10-20T20:06:49.884Z,74.50
2017-10-20T20:09:16.413Z,74.50
2017-10-20T20:11:42.804Z,74.70
2017-10-20T20:14:09.074Z,75.00
2017-10-20T20:16:35.358Z,75.00
2017-10-20T20:19:01.658Z,75.40
2017-10-20T20:21:27.989Z,75.20
2017-10-20T20:23:54.302Z,76.30
2017-10-20T20:26:20.717Z,76.50
2017-10-20T20:28:47.406Z,77.10
2017-10-20T20:31:16.738Z,77.10
2017-10-20T20:33:47.172Z,77.20
2017-10-20T20:36:14.040Z,76.90
2017-10-20T20:38:40.393Z,76.90
2017-10-20T20:41:07.433Z,77.50
2017-10-20T20:43:33.731Z,77.30
2017-10-20T20:46:00.368Z,77.30
2017-10-20T20:48:27.002Z,78.20
2017-10-20T20:50:53.350Z,78.20
2017-10-20T20:53:19.601Z,78.30
2017-10-20T20:55:45.838Z,78.20
2017-10-20T20:58:12.101Z,78.00
2017-10-20T21:00:38.323Z,77.50
2017-10-20T21:03:04.707Z,77.10
2017-10-20T21:05:30.917Z,77.40
2017-10-20T21:07:57.394Z,76.50
2017-10-20T21:10:23.659Z,76.50
2017-10-20T21:12:50.352Z,77.00
2017-10-20T21:15:16.592Z,77.00
2017-10-20T21:17:42.809Z,76.50
2017-10-20T21:20:09.075Z,76.00
2017-10-20T21:22:35.542Z,76.00
2017-10-20T21:25:01.781Z,75.90
2017-10-20T21:27:28.279Z,75.80
2017-10-20T21:29:54.882Z,75.90
2017-10-20T21:32:21.104Z,75.90
2017-10-20T21:34:47.326Z,76.00
2017-10-20T21:37:13.584Z,75.90
2017-10-20T21:39:39.835Z,75.80
2017-10-20T21:42:06.443Z,76.10
2017-10-20T21:44:32.642Z,76.10
2017-10-20T21:46:58.859Z,76.30
2017-10-20T21:49:25.104Z,76.30
2017-10-20T21:51:51.315Z,76.50
2017-10-20T21:54:17.593Z,76.60
2017-10-20T21:56:43.807Z,76.60
2017-10-20T21:59:10.043Z,76.80
2017-10-20T22:01:36.251Z,76.90
2017-10-20T22:04:02.512Z,77.00
2017-10-20T22:06:28.732Z,77.00
2017-10-20T22:08:54.938Z,77.20
2017-10-20T22:11:21.153Z,77.40
2017-10-20T22:13:48.053Z,77.30
2017-10-20T22:16:14.673Z,77.10
2017-10-20T22:18:40.887Z,77.10
2017-10-20T22:21:07.124Z,77.10
2017-10-20T22:23:33.329Z,77.10
2017-10-20T22:25:59.778Z,76.80
2017-10-20T22:28:26.028Z,76.70
2017-10-20T22:30:52.607Z,77.10
2017-10-20T22:33:18.834Z,77.10
2017-10-20T22:35:45.053Z,77.40
2017-10-20T22:38:11.291Z,77.50
2017-10-20T22:40:37.530Z,77.80
2017-10-20T22:43:03.760Z,78.10
2017-10-20T22:45:29.971Z,78.10
2017-10-20T22:47:56.171Z,78.20
2017-10-20T22:50:22.756Z,77.80
2017-10-20T22:52:49.009Z,77.80
2017-10-20T22:55:15.237Z,77.70
2017-10-20T22:57:41.468Z,77.80
2017-10-20T23:00:07.725Z,77.90
2017-10-20T23:02:34.332Z,77.70
2017-10-20T23:05:00.549Z,77.70
2017-10-20T23:07:26.909Z,77.50
2017-10-20T23:09:54.162Z,77.70
2017-10-20T23:12:20.749Z,77.80
2017-10-20T23:14:46.976Z,77.80
2017-10-20T23:17:13.222Z,77.90
2017-10-20T23:19:39.451Z,77.80
2017-10-20T23:22:05.744Z,77.90
2017-10-20T23:24:31.957Z,77.80
2017-10-20T23:26:58.225Z,77.70
2017-10-20T23:29:24.508Z,77.80
2017-10-20T23:31:50.735Z,77.70
2017-10-20T23:34:17.300Z,78.00
2017-10-20T23:36:43.505Z,78.00
2017-10-20T23:39:09.727Z,77.90
2017-10-20T23:41:36.319Z,77.80
2017-10-20T23:44:02.568Z,77.80
2017-10-20T23:46:28.776Z,77.90
2017-10-20T23:48:54.990Z,78.10
2017-10-20T23:51:21.236Z,77.90
2017-10-20T23:53:47.486Z,77.80
2017-10-20T23:56:13.715Z,77.80
2017-10-20T23:58:40.007Z,77.60
